createdAt,value
2023-05-17T04:01:01.797Z,99.40
2023-05-17T04:05:14.137Z,99.35
2023-05-17T04:09:31.207Z,99.21
2023-05-17T04:13:44.407Z,99.67
2023-05-17T04:17:55.962Z,99.98
2023-05-17T04:22:07.592Z,99.80
2023-05-17T04:26:20.558Z,99.45
2023-05-17T04:30:32.632Z,99.00
2023-05-17T04:34:44.881Z,98.40
2023-05-17T04:38:56.603Z,98.60
2023-05-17T04:43:12.079Z,98.42
2023-05-17T04:47:23.924Z,98.80
2023-05-17T04:51:37.001Z,99.16
2023-05-17T04:55:48.726Z,99.27
2023-05-17T05:00:05.466Z,99.37
2023-05-17T05:04:17.340Z,99.60
2023-05-17T05:08:33.630Z,99.14
2023-05-17T05:12:45.632Z,98.58
2023-05-17T05:16:57.534Z,98.34
2023-05-17T05:21:09.177Z,98.04
2023-05-17T05:25:20.822Z,98.37
2023-05-17T05:29:32.425Z,97.94
2023-05-17T05:33:44.454Z,94.56
2023-05-17T05:37:57.552Z,74.76
2023-05-17T05:42:09.564Z,64.01
2023-05-17T05:46:21.342Z,54.64
2023-05-17T05:50:34.818Z,50.63
2023-05-17T05:54:53.412Z,48.37
2023-05-17T05:59:05.974Z,43.65
2023-05-17T06:03:17.771Z,44.70
2023-05-17T06:07:29.430Z,43.47
2023-05-17T06:11:40.976Z,44.28
2023-05-17T06:15:52.644Z,43.34
2023-05-17T06:20:05.124Z,44.32
2023-05-17T06:24:16.930Z,46.63
2023-05-17T06:28:28.537Z,47.13
2023-05-17T06:32:40.275Z,51.29
2023-05-17T06:36:52.222Z,50.41
2023-05-17T06:41:03.782Z,55.14
2023-05-17T06:45:15.377Z,59.61
2023-05-17T06:49:26.945Z,65.58
2023-05-17T06:53:38.537Z,70.33
2023-05-17T06:57:50.174Z,73.99
2023-05-17T07:02:01.709Z,75.60
2023-05-17T07:06:13.547Z,75.93
2023-05-17T07:10:25.120Z,76.64
2023-05-17T07:14:36.695Z,77.93
2023-05-17T07:18:48.351Z,76.86
2023-05-17T07:22:59.964Z,77.41
2023-05-17T07:27:11.950Z,74.30
2023-05-17T07:31:23.481Z,74.35
2023-05-17T07:35:35.081Z,73.55
2023-05-17T07:39:46.611Z,73.70
2023-05-17T07:43:58.161Z,73.42
2023-05-17T07:48:09.802Z,73.49
2023-05-17T07:52:21.643Z,71.47
2023-05-17T07:56:33.747Z,71.11
2023-05-17T08:00:45.390Z,68.88
2023-05-17T08:04:56.965Z,68.17
2023-05-17T08:09:08.714Z,69.14
2023-05-17T08:13:20.260Z,69.45
2023-05-17T08:17:31.914Z,70.65
2023-05-17T08:21:43.931Z,70.21
2023-05-17T08:25:55.451Z,69.46
2023-05-17T08:30:11.584Z,68.36
2023-05-17T08:34:26.538Z,68.23
2023-05-17T08:38:38.069Z,67.52
2023-05-17T08:42:52.698Z,67.61
2023-05-17T08:47:06.573Z,66.29
2023-05-17T08:51:19.815Z,65.74
2023-05-17T08:55:33.140Z,60.29
2023-05-17T08:59:46.651Z,61.79
2023-05-17T09:04:00.143Z,59.48
2023-05-17T09:08:14.023Z,60.15
2023-05-17T09:12:26.277Z,58.84
2023-05-17T09:16:38.286Z,59.00
2023-05-17T09:20:51.622Z,58.91
2023-05-17T09:25:04.670Z,59.15
2023-05-17T09:29:16.909Z,60.98
2023-05-17T09:33:28.506Z,63.18
2023-05-17T09:37:42.680Z,63.13
2023-05-17T09:41:57.170Z,63.84
2023-05-17T09:46:08.744Z,64.10
2023-05-17T09:50:24.575Z,63.48
2023-05-17T09:54:41.240Z,60.09
2023-05-17T09:58:52.949Z,59.38
2023-05-17T10:03:05.856Z,60.55
2023-05-17T10:07:21.471Z,62.15
2023-05-17T10:11:37.512Z,62.77
2023-05-17T10:15:49.746Z,63.97
2023-05-17T10:20:02.154Z,63.00
2023-05-17T10:24:14.650Z,63.61
2023-05-17T10:28:27.426Z,62.36
2023-05-17T10:32:39.477Z,61.15
2023-05-17T10:36:51.910Z,59.93
2023-05-17T10:41:04.308Z,57.17
2023-05-17T10:45:15.887Z,59.23
2023-05-17T10:49:31.636Z,57.46
2023-05-17T10:54:09.190Z,58.29
2023-05-17T10:58:21.100Z,58.75
2023-05-17T11:02:32.783Z,59.85
2023-05-17T11:06:45.299Z,60.31
2023-05-17T11:11:17.239Z,58.84
2023-05-17T11:15:33.140Z,60.34
2023-05-17T11:19:57.075Z,59.87
2023-05-17T11:24:09.367Z,59.23
2023-05-17T11:28:22.204Z,58.95
2023-05-17T11:32:34.101Z,58.38
2023-05-17T11:36:55.675Z,59.43
2023-05-17T11:45:58.085Z,56.41
2023-05-17T11:50:10.906Z,54.27
2023-05-17T11:54:25.967Z,55.30
2023-05-17T11:58:37.859Z,53.81
2023-05-17T12:02:49.614Z,54.33
2023-05-17T12:07:01.346Z,52.15
2023-05-17T12:11:15.313Z,51.58
2023-05-17T12:15:30.479Z,51.45
2023-05-17T12:19:42.148Z,50.90
2023-05-17T12:23:54.026Z,51.83
2023-05-17T12:28:17.239Z,52.70
2023-05-17T12:32:28.955Z,51.76
2023-05-17T12:36:40.910Z,50.45
2023-05-17T12:40:52.473Z,50.88
2023-05-17T12:45:04.382Z,48.71
2023-05-17T12:49:16.124Z,46.91
2023-05-17T12:53:36.218Z,46.50
2023-05-17T12:57:54.884Z,46.85
2023-05-17T13:02:06.781Z,48.13
2023-05-17T13:06:18.544Z,47.41
2023-05-17T13:10:30.435Z,47.52
2023-05-17T13:14:46.016Z,47.55
2023-05-17T13:18:58.613Z,46.27
2023-05-17T13:23:10.308Z,44.88
2023-05-17T13:27:22.012Z,42.43
2023-05-17T13:31:33.646Z,41.73
2023-05-17T13:35:45.677Z,41.50
2023-05-17T13:39:57.673Z,42.78
2023-05-17T13:44:10.335Z,41.46
2023-05-17T13:48:22.335Z,42.45
2023-05-17T13:52:34.055Z,40.81
2023-05-17T13:56:45.838Z,40.60
2023-05-17T14:00:57.387Z,41.41
2023-05-17T14:05:09.848Z,40.30
2023-05-17T14:09:21.606Z,40.93
2023-05-17T14:13:33.224Z,40.84
2023-05-17T14:17:44.881Z,41.04
2023-05-17T14:21:56.660Z,40.08
2023-05-17T14:26:09.354Z,39.50
2023-05-17T14:30:21.088Z,38.72
2023-05-17T14:34:32.621Z,38.13
2023-05-17T14:38:44.284Z,39.34
2023-05-17T14:42:56.566Z,40.51
2023-05-17T14:47:08.427Z,41.15
2023-05-17T14:51:20.059Z,40.53
2023-05-17T14:55:31.801Z,41.08
2023-05-17T14:59:45.181Z,39.56
2023-05-17T15:03:56.974Z,39.46
2023-05-17T15:08:08.776Z,40.54
2023-05-17T15:12:20.548Z,40.41
2023-05-17T15:16:33.335Z,41.60
2023-05-17T15:20:44.902Z,41.20
2023-05-17T15:24:58.327Z,40.64
2023-05-17T15:29:10.041Z,41.36
2023-05-17T15:33:21.714Z,41.32
2023-05-17T15:37:33.356Z,42.20
2023-05-17T15:41:45.535Z,42.35
2023-05-17T15:45:57.186Z,41.89
2023-05-17T15:50:09.032Z,41.09
2023-05-17T15:54:20.620Z,41.57
2023-05-17T15:58:35.543Z,40.18
2023-05-17T16:02:47.140Z,39.92
2023-05-17T16:06:58.764Z,40.50
2023-05-17T16:11:10.296Z,39.63
2023-05-17T16:15:22.169Z,40.11
2023-05-17T16:19:34.299Z,40.99
2023-05-17T16:23:47.146Z,40.83
2023-05-17T16:27:58.719Z,39.62
2023-05-17T16:32:10.341Z,40.19
2023-05-17T16:36:22.871Z,41.54
2023-05-17T16:40:34.530Z,40.64
2023-05-17T16:44:46.137Z,41.16
2023-05-17T16:48:57.722Z,42.72
2023-05-17T16:53:09.301Z,42.42
2023-05-17T16:57:20.984Z,41.95
2023-05-17T17:01:32.884Z,42.66
2023-05-17T17:05:44.513Z,41.14
2023-05-17T17:09:56.541Z,40.91
2023-05-17T17:14:08.192Z,41.84
2023-05-17T17:18:20.239Z,42.18
2023-05-17T17:22:32.078Z,41.70
2023-05-17T17:26:44.994Z,41.80
2023-05-17T17:30:56.805Z,42.15
2023-05-17T17:35:09.073Z,43.14
2023-05-17T17:39:20.725Z,43.03
2023-05-17T17:43:32.285Z,42.13
2023-05-17T17:47:43.988Z,42.38
2023-05-17T17:51:55.761Z,42.42
2023-05-17T17:56:08.238Z,41.61
2023-05-17T18:00:20.543Z,41.99
2023-05-17T18:04:32.162Z,42.14
2023-05-17T18:08:43.828Z,42.64
2023-05-17T18:12:55.381Z,42.70
2023-05-17T18:17:08.162Z,42.87
2023-05-17T18:21:19.812Z,43.36
2023-05-17T18:25:31.542Z,43.12
2023-05-17T18:29:43.200Z,44.70
2023-05-17T18:33:57.160Z,45.49
2023-05-17T18:38:09.091Z,45.62
2023-05-17T18:42:21.503Z,46.72
2023-05-17T18:46:33.099Z,47.80
2023-05-17T18:50:44.803Z,50.61
2023-05-17T18:54:56.404Z,50.96
2023-05-17T18:59:08.348Z,55.48
2023-05-17T19:03:20.090Z,55.60
2023-05-17T19:07:31.689Z,57.64
2023-05-17T19:11:43.244Z,59.31
2023-05-17T19:15:54.810Z,60.50
2023-05-17T19:20:07.085Z,61.51
2023-05-17T19:24:18.674Z,63.08
2023-05-17T19:28:31.532Z,63.84
2023-05-17T19:32:43.212Z,65.16
2023-05-17T19:36:54.888Z,66.00
2023-05-17T19:41:07.448Z,67.93
2023-05-17T19:45:19.184Z,67.95
2023-05-17T19:49:30.987Z,69.09
2023-05-17T19:53:52.577Z,71.22
2023-05-17T19:58:07.788Z,71.61
2023-05-17T20:02:19.601Z,73.01
2023-05-17T20:06:31.751Z,74.17
2023-05-17T20:10:43.388Z,74.30
2023-05-17T20:14:55.018Z,74.22
2023-05-17T20:19:06.715Z,75.15
2023-05-17T20:23:18.577Z,76.25
2023-05-17T20:27:30.125Z,76.95
2023-05-17T20:31:41.987Z,77.67
2023-05-17T20:35:54.034Z,78.13
2023-05-17T20:40:09.075Z,78.52
2023-05-17T20:44:21.794Z,78.48
2023-05-17T20:48:34.237Z,79.21
2023-05-17T20:52:46.083Z,80.03
2023-05-17T20:56:58.326Z,79.90
2023-05-17T21:01:10.092Z,80.67
2023-05-17T21:05:22.028Z,81.29
2023-05-17T21:09:34.768Z,81.44
2023-05-17T21:13:46.372Z,82.53
2023-05-17T21:17:58.206Z,82.56
2023-05-17T21:22:09.864Z,81.19
2023-05-17T21:26:21.710Z,79.67
